Últimos artigos:
Acender um LED com a tensão da rede eléctrica
Programação do Yaesu FT-60 para os EasySats
AO-91 (RadFxSat Fox-1B) está no Ar!
CT7AFR DIY CW-Keyer
Shutdown button for the Raspberry Pi
Simple C code to dump I2C device memory
Últimas fotos:
Últimos METARs:
LPAZ 200830Z 06006KT 9999 FEW026 SCT046 15...
LPFR 200830Z 29005KT 9999 FEW020 14/12 Q10...
LPHR 200830Z 03009KT 9999 FEW025 17/11 Q10...
LPLA 200800Z /////KT 9999 SCT030 16/12 Q10...
LPMA 200830Z 02011KT 350V060 9999 SCT015 2...
LPPD 200830Z 04005KT 9999 FEW022 SCT045 15...
LPPR 200830Z 01007KT CAVOK 12/10 Q1013=
LPPS 200830Z 03011KT 9999 FEW015 20/10 Q10...
LPPT 200830Z 29005KT 240V340 9999 FEW025 1...
Últimos QSOs:
2019/09/14-14:30 11m QRXNORTE (CARLOS)
2019/05/26-18:36 6m UT4XU (NIKOLAY)
2019/05/26-18:27 6m DM2HW (JOHANNES)
2019/05/26-18:22 6m CT3MD (JOSE)
2019/05/26-18:16 6m OK1VRV (RICHTR)
2019/05/26-18:07 6m SP9CVY (JERZY)
  UTC
Rpi-6 CPU Temp: 454642.0 °C (251812Z)
IN51oq 0911Z /////KT //// 18/12 Q1013=
63340